createdAt,value
2022-12-22T00:00:52.613Z,87270.88
2022-12-22T00:03:20.054Z,87273.81
2022-12-22T00:05:47.527Z,87271.22
2022-12-22T00:08:15.221Z,87273.81
2022-12-22T00:10:42.509Z,87282.69
2022-12-22T00:13:14.716Z,87276.34
2022-12-22T00:15:42.025Z,87279.16
2022-12-22T00:18:15.775Z,87269.50
2022-12-22T00:20:42.961Z,87269.72
2022-12-22T00:23:10.973Z,87269.50
2022-12-22T00:25:38.317Z,87272.41
2022-12-22T00:28:15.319Z,87275.78
2022-12-22T00:30:43.199Z,87279.16
2022-12-22T00:33:16.991Z,87285.09
2022-12-22T00:35:44.557Z,87284.88
2022-12-22T00:38:18.872Z,87280.13
2022-12-22T00:40:46.026Z,87272.31
2022-12-22T00:43:14.048Z,87267.63
2022-12-22T00:45:41.652Z,87270.66
2022-12-22T00:48:26.691Z,87258.56
2022-12-22T00:50:54.829Z,87261.59
2022-12-22T00:53:22.920Z,87247.16
2022-12-22T00:55:50.801Z,87261.81
2022-12-22T00:58:20.596Z,87250.63
2022-12-22T01:00:47.786Z,87243.59
2022-12-22T01:03:15.559Z,87242.91
2022-12-22T01:05:43.337Z,87245.22
2022-12-22T01:08:12.535Z,87240.31
2022-12-22T01:10:39.802Z,87244.44
2022-12-22T01:13:16.397Z,87250.63
2022-12-22T01:15:43.822Z,87253.78
2022-12-22T01:18:11.002Z,87256.16
2022-12-22T01:20:38.189Z,87255.72
2022-12-22T01:23:11.011Z,87250.09
2022-12-22T01:25:38.160Z,87248.88
2022-12-22T01:28:05.777Z,87243.16
2022-12-22T01:30:32.940Z,87241.63
2022-12-22T01:33:00.112Z,87240.34
2022-12-22T01:35:31.803Z,87231.34
2022-12-22T01:37:58.956Z,87237.97
2022-12-22T01:40:26.663Z,87233.44
2022-12-22T01:42:53.805Z,87234.84
2022-12-22T01:45:23.274Z,87245.22
2022-12-22T01:47:50.628Z,87225.84
2022-12-22T01:50:34.712Z,87222.13
2022-12-22T01:53:07.546Z,87224.66
2022-12-22T01:55:34.696Z,87216.63
2022-12-22T01:58:01.951Z,87226.34
2022-12-22T02:00:29.131Z,87211.44
2022-12-22T02:02:56.361Z,87210.34
2022-12-22T02:05:23.901Z,87212.50
2022-12-22T02:08:21.275Z,87212.50
2022-12-22T02:11:32.876Z,87208.28
2022-12-22T02:14:30.141Z,87210.03
2022-12-22T02:17:26.725Z,87201.03
2022-12-22T02:20:48.354Z,87195.72
2022-12-22T02:24:03.385Z,87197.13
2022-12-22T02:26:49.052Z,87201.56
2022-12-22T02:29:25.014Z,87200.38
2022-12-22T02:31:52.471Z,87199.63
2022-12-22T02:34:19.748Z,87201.34
2022-12-22T02:37:03.515Z,87198.31
2022-12-22T02:39:59.746Z,87197.22
2022-12-22T02:42:49.638Z,87190.19
2022-12-22T02:46:03.210Z,87189.75
2022-12-22T02:48:48.304Z,87186.41
2022-12-22T02:51:23.241Z,87178.94
2022-12-22T02:53:53.731Z,87188.69
2022-12-22T02:56:22.705Z,87188.69
2022-12-22T02:58:50.044Z,87179.78
2022-12-22T03:01:17.609Z,87175.16
2022-12-22T03:03:44.813Z,87175.91
2022-12-22T03:06:11.957Z,87177.75
2022-12-22T03:08:39.114Z,87179.59
2022-12-22T03:11:06.359Z,87170.72
2022-12-22T03:13:33.565Z,87165.53
2022-12-22T03:16:00.768Z,87174.81
2022-12-22T03:18:28.088Z,87171.03
2022-12-22T03:20:57.062Z,87153.94
2022-12-22T03:23:24.189Z,87159.88
2022-12-22T03:25:51.375Z,87165.72
2022-12-22T03:28:19.675Z,87166.38
2022-12-22T03:30:53.403Z,87164.09
2022-12-22T03:33:21.522Z,87165.50
2022-12-22T03:35:48.731Z,87165.81
2022-12-22T03:38:16.248Z,87159.88
2022-12-22T03:40:44.679Z,87162.38
2022-12-22T03:43:16.885Z,87168.22
2022-12-22T03:45:44.036Z,87168.53
2022-12-22T03:48:11.780Z,87153.63
2022-12-22T03:50:39.078Z,87168.66
2022-12-22T03:53:06.350Z,87167.88
2022-12-22T03:55:33.560Z,87169.28
2022-12-22T03:58:00.718Z,87164.41
2022-12-22T04:00:27.913Z,87162.59
2022-12-22T04:02:58.951Z,87156.53
2022-12-22T04:05:27.388Z,87159.88
2022-12-22T04:07:54.521Z,87169.19
2022-12-22T04:10:21.673Z,87172.13
2022-12-22T04:12:52.655Z,87175.00
2022-12-22T04:15:22.855Z,87167.13
2022-12-22T04:17:50.396Z,87170.47
2022-12-22T04:20:19.790Z,87162.69
2022-12-22T04:22:48.538Z,87167.31
2022-12-22T04:25:16.289Z,87161.94
2022-12-22T04:27:43.588Z,87161.50
2022-12-22T04:30:11.726Z,87163.66
2022-12-22T04:32:38.852Z,87160.59
2022-12-22T04:35:07.278Z,87165.94
2022-12-22T04:37:34.931Z,87162.13
2022-12-22T04:40:02.411Z,87176.19
2022-12-22T04:42:29.646Z,87169.38
2022-12-22T04:44:56.763Z,87165.59
2022-12-22T04:47:23.962Z,87157.69
2022-12-22T04:49:51.109Z,87160.91
2022-12-22T04:52:18.265Z,87158.97
2022-12-22T04:54:45.452Z,87160.38
2022-12-22T04:57:12.956Z,87158.13
2022-12-22T04:59:40.097Z,87163.19
2022-12-22T05:02:07.399Z,87155.72
2022-12-22T05:04:34.721Z,87151.94
2022-12-22T05:07:05.050Z,87148.13
2022-12-22T05:09:32.209Z,87154.38
2022-12-22T05:11:59.352Z,87139.16
2022-12-22T05:14:26.831Z,87137.31
2022-12-22T05:16:54.146Z,87123.56
2022-12-22T05:19:24.872Z,87128.22
2022-12-22T05:21:54.561Z,87120.97
2022-12-22T05:24:21.745Z,87116.22
2022-12-22T05:26:48.874Z,87130.06
2022-12-22T05:29:16.015Z,87133.91
2022-12-22T05:31:47.090Z,87131.66
2022-12-22T05:34:14.940Z,87127.88
2022-12-22T05:36:42.115Z,87127.22
2022-12-22T05:39:09.572Z,87126.47
2022-12-22T05:41:36.726Z,87135.22
2022-12-22T05:44:04.179Z,87141.69
2022-12-22T05:46:31.450Z,87140.31
2022-12-22T05:48:58.604Z,87153.28
2022-12-22T05:51:25.814Z,87144.28
2022-12-22T05:53:52.966Z,87151.63
2022-12-22T05:56:20.149Z,87162.31
2022-12-22T05:58:47.309Z,87162.97
2022-12-22T06:01:14.475Z,87148.03
2022-12-22T06:03:41.769Z,87150.97
2022-12-22T06:06:09.147Z,87136.47
2022-12-22T06:08:36.350Z,87128.34
2022-12-22T06:11:03.508Z,87131.28
2022-12-22T06:13:31.922Z,87134.19
2022-12-22T06:15:59.118Z,87129.44
2022-12-22T06:18:26.540Z,87130.31
2022-12-22T06:20:54.525Z,87128.91
2022-12-22T06:23:23.133Z,87141.47
2022-12-22T06:26:00.358Z,87141.47
2022-12-22T06:28:28.684Z,87141.31
2022-12-22T06:30:56.558Z,87134.31
2022-12-22T06:33:24.148Z,87129.88
2022-12-22T06:35:57.978Z,87140.69
2022-12-22T06:38:28.556Z,87149.31
2022-12-22T06:40:56.161Z,87156.63
2022-12-22T06:43:23.595Z,87155.47
2022-12-22T06:45:51.236Z,87164.31
2022-12-22T06:48:19.108Z,87159.56
2022-12-22T06:50:46.742Z,87175.13
2022-12-22T06:53:14.340Z,87169.50
2022-12-22T06:55:42.073Z,87156.88
2022-12-22T06:58:09.570Z,87156.53
2022-12-22T07:00:36.706Z,87158.81
2022-12-22T07:03:04.127Z,87156.53
2022-12-22T07:05:31.350Z,87154.50
2022-12-22T07:08:02.723Z,87148.22
2022-12-22T07:10:35.089Z,87153.22
2022-12-22T07:13:02.257Z,87152.78
2022-12-22T07:15:29.368Z,87150.19
2022-12-22T07:17:56.511Z,87154.72
2022-12-22T07:20:23.680Z,87156.25
2022-12-22T07:22:50.797Z,87144.47
2022-12-22T07:25:18.130Z,87146.75
2022-12-22T07:27:45.264Z,87152.72
2022-12-22T07:30:12.923Z,87149.34
2022-12-22T07:32:40.148Z,87142.75
2022-12-22T07:35:07.845Z,87152.38
2022-12-22T07:37:35.318Z,87156.69
2022-12-22T07:40:02.459Z,87151.22
2022-12-22T07:42:29.673Z,87149.53
2022-12-22T07:44:56.796Z,87146.22
2022-12-22T07:47:25.407Z,87147.72
2022-12-22T07:49:55.691Z,87158.66
2022-12-22T07:52:22.854Z,87168.06
2022-12-22T07:54:49.998Z,87168.41
2022-12-22T07:57:17.182Z,87153.03
2022-12-22T07:59:44.491Z,87168.00
2022-12-22T08:02:12.043Z,87175.00
2022-12-22T08:04:39.431Z,87175.91
2022-12-22T08:07:07.233Z,87181.97
2022-12-22T08:09:34.505Z,87182.50
2022-12-22T08:12:01.725Z,87179.19
2022-12-22T08:14:28.854Z,87166.09
2022-12-22T08:16:56.029Z,87167.94
2022-12-22T08:19:23.414Z,87156.59
2022-12-22T08:21:53.177Z,87168.94
2022-12-22T08:24:21.783Z,87171.97
2022-12-22T08:26:57.690Z,87163.34
2022-12-22T08:29:36.566Z,87165.41
2022-12-22T08:32:04.783Z,87164.19
2022-12-22T08:34:32.221Z,87170.59
2022-12-22T08:37:03.024Z,87159.56
2022-12-22T08:39:37.680Z,87160.09
2022-12-22T08:42:08.838Z,87155.97
2022-12-22T08:44:37.930Z,87147.84
2022-12-22T08:47:07.986Z,87153.00
2022-12-22T08:49:38.804Z,87143.78
2022-12-22T08:52:06.062Z,87151.97
2022-12-22T08:54:33.471Z,87153.38
2022-12-22T08:57:00.746Z,87157.66
2022-12-22T08:59:27.938Z,87152.31
2022-12-22T09:01:55.181Z,87166.75
2022-12-22T09:04:23.552Z,87160.13
2022-12-22T09:06:52.756Z,87155.03
2022-12-22T09:09:21.220Z,87146.47
2022-12-22T09:11:49.437Z,87148.59
2022-12-22T09:14:17.513Z,87150.94
2022-12-22T09:16:44.950Z,87147.34
2022-12-22T09:19:12.235Z,87138.88
2022-12-22T09:21:39.391Z,87146.13
2022-12-22T09:24:07.142Z,87139.41
2022-12-22T09:26:35.905Z,87131.31
2022-12-22T09:29:04.662Z,87122.09
2022-12-22T09:31:32.655Z,87121.84
2022-12-22T09:34:00.123Z,87115.88
2022-12-22T09:36:31.304Z,87110.84
2022-12-22T09:38:58.484Z,87110.50
2022-12-22T09:41:49.504Z,87109.25
2022-12-22T09:44:51.307Z,87104.97
2022-12-22T09:47:34.025Z,87103.63
2022-12-22T09:50:02.887Z,87103.81
2022-12-22T09:52:36.099Z,87098.00
2022-12-22T09:55:13.382Z,87097.00
2022-12-22T09:57:40.521Z,87096.75
2022-12-22T10:00:20.918Z,87095.81
2022-12-22T10:03:41.028Z,87116.41
2022-12-22T10:06:19.146Z,87099.41
2022-12-22T10:08:46.572Z,87098.91
2022-12-22T10:11:17.751Z,87091.59
2022-12-22T10:13:46.833Z,87090.56
2022-12-22T10:16:28.890Z,87096.97
2022-12-22T10:19:10.625Z,87098.25
2022-12-22T10:21:46.448Z,87100.25
2022-12-22T10:24:35.709Z,87095.91
2022-12-22T10:27:03.130Z,87098.78
2022-12-22T10:29:32.579Z,87096.31
2022-12-22T10:32:20.662Z,87098.31
2022-12-22T10:35:06.839Z,87105.03
2022-12-22T10:37:37.996Z,87097.19
2022-12-22T10:40:22.188Z,87105.19
2022-12-22T10:42:56.379Z,87098.63
2022-12-22T10:45:27.890Z,87090.84
2022-12-22T10:47:57.861Z,87081.97
2022-12-22T10:50:25.180Z,87080.13
2022-12-22T10:52:58.326Z,87086.03
2022-12-22T10:55:29.819Z,87069.59
2022-12-22T10:58:17.722Z,87069.19
2022-12-22T11:01:01.179Z,87074.50
2022-12-22T11:03:32.832Z,87080.50
2022-12-22T11:06:01.781Z,87067.50
2022-12-22T11:08:31.768Z,87055.34
2022-12-22T11:11:13.335Z,87064.75
2022-12-22T11:13:51.288Z,87055.19
2022-12-22T11:16:40.498Z,87049.56
2022-12-22T11:19:33.465Z,87052.16
2022-12-22T11:22:14.991Z,87046.31
2022-12-22T11:25:29.252Z,87051.34
2022-12-22T11:28:17.904Z,87050.59
2022-12-22T11:31:35.574Z,87041.34
2022-12-22T11:34:46.468Z,87041.75
2022-12-22T11:37:45.588Z,87033.06
2022-12-22T11:40:54.158Z,87030.91
2022-12-22T11:43:30.595Z,87032.56
2022-12-22T11:46:42.975Z,87029.19
2022-12-22T11:50:58.890Z,87035.91
2022-12-22T11:53:17.150Z,87022.84
2022-12-22T11:56:02.036Z,87000.22
2022-12-22T11:58:47.199Z,86992.78
2022-12-22T12:01:45.019Z,86997.69
2022-12-22T12:04:58.432Z,86988.16
2022-12-22T12:07:48.619Z,86994.16
2022-12-22T12:10:25.584Z,86991.72
2022-12-22T12:13:28.695Z,86990.75
2022-12-22T12:16:34.364Z,86992.66
2022-12-22T12:19:27.150Z,86980.00
2022-12-22T12:22:00.197Z,86983.66
2022-12-22T12:25:21.050Z,86968.00
2022-12-22T12:28:03.722Z,86969.09
2022-12-22T12:31:04.409Z,86970.16
2022-12-22T12:33:51.494Z,86968.22
2022-12-22T12:36:42.198Z,86971.88
2022-12-22T12:39:21.087Z,86972.91
2022-12-22T12:41:57.514Z,86969.44
2022-12-22T12:44:34.946Z,86972.66
2022-12-22T12:47:33.859Z,86955.03
2022-12-22T12:50:21.300Z,86956.44
2022-12-22T12:52:48.387Z,86952.88
2022-12-22T12:55:51.666Z,86952.59
2022-12-22T12:58:36.870Z,86946.53
2022-12-22T13:01:09.293Z,86947.72
2022-12-22T13:06:51.333Z,86952.16
2022-12-22T13:09:49.111Z,86950.31
2022-12-22T13:12:49.629Z,86958.00
2022-12-22T13:15:34.630Z,86954.66
2022-12-22T13:18:09.291Z,86959.13
2022-12-22T13:20:38.025Z,86963.31
2022-12-22T13:23:15.059Z,86966.88
2022-12-22T13:26:00.143Z,86971.41
2022-12-22T13:28:29.638Z,86965.78
2022-12-22T13:31:30.956Z,86974.69
2022-12-22T13:34:25.999Z,86973.84
2022-12-22T13:36:57.527Z,86982.28
2022-12-22T13:39:24.757Z,86985.22
2022-12-22T13:41:52.640Z,86980.00
2022-12-22T13:44:33.735Z,86982.00
2022-12-22T13:47:12.735Z,86983.50
2022-12-22T13:50:07.803Z,86983.19
2022-12-22T13:52:30.783Z,86989.75
2022-12-22T13:55:00.593Z,86984.53
2022-12-22T13:57:27.857Z,86989.41
2022-12-22T13:59:55.201Z,86987.63
2022-12-22T14:02:22.830Z,86979.44
2022-12-22T14:05:12.523Z,86991.31
2022-12-22T14:07:39.789Z,86986.09
2022-12-22T14:10:08.425Z,86985.97
2022-12-22T14:12:46.756Z,87002.72
2022-12-22T14:15:20.786Z,86999.63
2022-12-22T14:17:52.777Z,86994.00
2022-12-22T14:20:38.492Z,86999.81
2022-12-22T14:23:41.719Z,87008.00
2022-12-22T14:26:22.543Z,87005.03
2022-12-22T14:28:55.138Z,87012.84
2022-12-22T14:31:22.317Z,87005.03
2022-12-22T14:33:59.768Z,87011.38
2022-12-22T14:36:40.783Z,87008.66
2022-12-22T14:39:25.194Z,87027.25
2022-12-22T14:42:00.936Z,87010.03
2022-12-22T14:44:42.264Z,87005.84
2022-12-22T14:47:17.294Z,87011.06
2022-12-22T14:49:51.820Z,87001.28
2022-12-22T14:52:25.604Z,87003.09
2022-12-22T14:54:54.611Z,87002.25
2022-12-22T14:57:36.905Z,87004.41
2022-12-22T15:00:32.224Z,87010.06
2022-12-22T15:03:23.139Z,87007.13
2022-12-22T15:05:52.229Z,87016.38
2022-12-22T15:08:42.840Z,87018.47
2022-12-22T15:11:15.712Z,87016.56
2022-12-22T15:13:45.591Z,87013.13
2022-12-22T15:16:20.856Z,87015.28
2022-12-22T15:18:52.359Z,87022.28
2022-12-22T15:21:20.906Z,87015.88
2022-12-22T15:23:48.001Z,87025.81
2022-12-22T15:26:15.280Z,87020.25
2022-12-22T15:28:42.525Z,87020.03
2022-12-22T15:31:16.691Z,87028.59
2022-12-22T15:33:45.909Z,87027.84
2022-12-22T15:36:14.891Z,87046.16
2022-12-22T15:38:42.366Z,87044.06
2022-12-22T15:41:09.586Z,87040.59
2022-12-22T15:43:57.172Z,87048.69
2022-12-22T15:46:23.955Z,87055.22
2022-12-22T15:48:51.271Z,87059.34
2022-12-22T15:51:26.527Z,87050.75
2022-12-22T15:53:57.428Z,87056.63
2022-12-22T15:56:28.546Z,87061.34
2022-12-22T15:58:56.169Z,87046.06
2022-12-22T16:01:23.423Z,87048.22
2022-12-22T16:03:50.911Z,87055.13
2022-12-22T16:06:19.794Z,87051.44
2022-12-22T16:08:53.089Z,87051.00
2022-12-22T16:11:20.560Z,87058.81
2022-12-22T16:13:50.209Z,87052.13
2022-12-22T16:16:17.935Z,87054.63
2022-12-22T16:18:45.558Z,87053.88
2022-12-22T16:21:23.796Z,87044.19
2022-12-22T16:23:51.404Z,87053.00
2022-12-22T16:26:21.125Z,87055.19
2022-12-22T16:28:48.861Z,87058.38
2022-12-22T16:31:23.283Z,87063.41
2022-12-22T16:34:18.486Z,87065.63
2022-12-22T16:36:50.165Z,87057.94
2022-12-22T16:39:21.638Z,87068.19
2022-12-22T16:42:00.207Z,87066.97
2022-12-22T16:44:28.994Z,87054.88
2022-12-22T16:46:58.743Z,87063.09
2022-12-22T16:52:23.081Z,87054.97
2022-12-22T16:54:52.780Z,87047.81
2022-12-22T16:57:20.326Z,87049.69
2022-12-22T16:59:47.600Z,87048.72
2022-12-22T17:02:34.182Z,87054.44
2022-12-22T17:05:03.187Z,87044.78
2022-12-22T17:07:33.591Z,87041.88
2022-12-22T17:10:02.937Z,87038.41
2022-12-22T17:12:34.609Z,87030.41
2022-12-22T17:15:02.501Z,87028.25
2022-12-22T17:17:35.540Z,87024.97
2022-12-22T17:20:12.842Z,87036.78
2022-12-22T17:22:44.833Z,87034.97
2022-12-22T17:25:26.659Z,87031.28
2022-12-22T17:27:56.225Z,87030.66
2022-12-22T17:30:27.094Z,87040.38
2022-12-22T17:32:56.444Z,87029.28
2022-12-22T17:35:27.257Z,87021.81
2022-12-22T17:37:54.867Z,87030.47
2022-12-22T17:40:24.984Z,87030.13
2022-12-22T17:42:53.460Z,87028.63
2022-12-22T17:45:30.403Z,87034.25
2022-12-22T17:47:58.287Z,87033.50
2022-12-22T17:50:25.681Z,87027.53
2022-12-22T17:52:52.894Z,87027.09
2022-12-22T17:56:06.433Z,87032.22
